sensor_id;sensor_type;location;lat;lon;timestamp;P1;durP1;ratioP1;P2;durP2;ratioP2
22024;SDS011;11176;51.448;6.650;2023-02-21T00:02:24;37.03;;;23.52;;
22024;SDS011;11176;51.448;6.650;2023-02-21T00:05:10;40.13;;;23.63;;
22024;SDS011;11176;51.448;6.650;2023-02-21T00:07:55;33.42;;;22.75;;
22024;SDS011;11176;51.448;6.650;2023-02-21T00:10:40;36.33;;;24.30;;
22024;SDS011;11176;51.448;6.650;2023-02-21T00:13:25;39.22;;;23.67;;
22024;SDS011;11176;51.448;6.650;2023-02-21T00:16:15;36.80;;;24.50;;
22024;SDS011;11176;51.448;6.650;2023-02-21T00:19:01;36.85;;;25.25;;
22024;SDS011;11176;51.448;6.650;2023-02-21T00:21:47;37.15;;;23.80;;
22024;SDS011;11176;51.448;6.650;2023-02-21T00:24:32;40.92;;;25.52;;
22024;SDS011;11176;51.448;6.650;2023-02-21T00:27:17;33.25;;;22.95;;
22024;SDS011;11176;51.448;6.650;2023-02-21T00:30:02;35.33;;;23.00;;
22024;SDS011;11176;51.448;6.650;2023-02-21T00:32:48;32.88;;;22.15;;
22024;SDS011;11176;51.448;6.650;2023-02-21T00:35:33;35.50;;;23.52;;
22024;SDS011;11176;51.448;6.650;2023-02-21T00:38:19;46.05;;;28.17;;
22024;SDS011;11176;51.448;6.650;2023-02-21T00:41:04;34.95;;;23.60;;
22024;SDS011;11176;51.448;6.650;2023-02-21T00:43:49;37.53;;;24.23;;
22024;SDS011;11176;51.448;6.650;2023-02-21T00:46:34;40.80;;;26.08;;
22024;SDS011;11176;51.448;6.650;2023-02-21T00:49:19;42.13;;;25.10;;
22024;SDS011;11176;51.448;6.650;2023-02-21T00:52:05;39.80;;;25.50;;
22024;SDS011;11176;51.448;6.650;2023-02-21T00:54:50;42.88;;;26.15;;
22024;SDS011;11176;51.448;6.650;2023-02-21T00:57:35;38.63;;;24.85;;
22024;SDS011;11176;51.448;6.650;2023-02-21T01:00:21;42.58;;;26.40;;
22024;SDS011;11176;51.448;6.650;2023-02-21T01:03:08;39.28;;;24.73;;
22024;SDS011;11176;51.448;6.650;2023-02-21T01:05:55;39.72;;;25.98;;
22024;SDS011;11176;51.448;6.650;2023-02-21T01:08:44;37.38;;;23.75;;
22024;SDS011;11176;51.448;6.650;2023-02-21T01:11:30;46.15;;;28.35;;
22024;SDS011;11176;51.448;6.650;2023-02-21T01:14:16;49.17;;;28.23;;
22024;SDS011;11176;51.448;6.650;2023-02-21T01:17:02;45.72;;;28.42;;
22024;SDS011;11176;51.448;6.650;2023-02-21T01:19:46;41.33;;;26.02;;
22024;SDS011;11176;51.448;6.650;2023-02-21T01:22:33;43.35;;;27.20;;
22024;SDS011;11176;51.448;6.650;2023-02-21T01:25:19;46.25;;;28.05;;
22024;SDS011;11176;51.448;6.650;2023-02-21T01:28:04;48.22;;;27.63;;
22024;SDS011;11176;51.448;6.650;2023-02-21T01:30:49;44.83;;;26.73;;
22024;SDS011;11176;51.448;6.650;2023-02-21T01:33:38;46.35;;;27.67;;
22024;SDS011;11176;51.448;6.650;2023-02-21T01:36:25;39.33;;;24.92;;
22024;SDS011;11176;51.448;6.650;2023-02-21T01:39:12;48.13;;;28.00;;
22024;SDS011;11176;51.448;6.650;2023-02-21T01:41:58;44.60;;;27.95;;
22024;SDS011;11176;51.448;6.650;2023-02-21T01:44:46;45.80;;;26.33;;
22024;SDS011;11176;51.448;6.650;2023-02-21T01:47:32;42.15;;;27.30;;
22024;SDS011;11176;51.448;6.650;2023-02-21T01:50:20;50.65;;;28.92;;
22024;SDS011;11176;51.448;6.650;2023-02-21T01:53:12;52.22;;;29.75;;
22024;SDS011;11176;51.448;6.650;2023-02-21T01:56:09;47.17;;;27.98;;
22024;SDS011;11176;51.448;6.650;2023-02-21T01:58:55;49.00;;;28.27;;
22024;SDS011;11176;51.448;6.650;2023-02-21T02:01:57;44.38;;;26.77;;
22024;SDS011;11176;51.448;6.650;2023-02-21T02:04:46;48.75;;;27.65;;
22024;SDS011;11176;51.448;6.650;2023-02-21T02:07:34;44.45;;;27.90;;
22024;SDS011;11176;51.448;6.650;2023-02-21T02:10:19;44.45;;;29.33;;
22024;SDS011;11176;51.448;6.650;2023-02-21T02:18:59;41.97;;;26.85;;
22024;SDS011;11176;51.448;6.650;2023-02-21T02:38:28;42.72;;;26.27;;
22024;SDS011;11176;51.448;6.650;2023-02-21T02:41:21;42.88;;;27.10;;
22024;SDS011;11176;51.448;6.650;2023-02-21T02:46:30;44.05;;;27.33;;
22024;SDS011;11176;51.448;6.650;2023-02-21T02:49:04;40.15;;;26.63;;
22024;SDS011;11176;51.448;6.650;2023-02-21T02:51:34;40.78;;;26.92;;
22024;SDS011;11176;51.448;6.650;2023-02-21T02:54:03;38.88;;;26.42;;
22024;SDS011;11176;51.448;6.650;2023-02-21T02:56:30;37.70;;;25.48;;
22024;SDS011;11176;51.448;6.650;2023-02-21T03:04:19;41.28;;;26.92;;
22024;SDS011;11176;51.448;6.650;2023-02-21T03:12:43;42.00;;;26.95;;
22024;SDS011;11176;51.448;6.650;2023-02-21T03:15:18;41.08;;;25.88;;
22024;SDS011;11176;51.448;6.650;2023-02-21T03:17:50;43.67;;;27.33;;
22024;SDS011;11176;51.448;6.650;2023-02-21T03:20:21;43.15;;;27.75;;
22024;SDS011;11176;51.448;6.650;2023-02-21T03:22:50;44.20;;;27.27;;
22024;SDS011;11176;51.448;6.650;2023-02-21T03:25:18;40.28;;;26.63;;
22024;SDS011;11176;51.448;6.650;2023-02-21T03:27:47;39.95;;;27.50;;
22024;SDS011;11176;51.448;6.650;2023-02-21T03:30:24;43.65;;;28.15;;
22024;SDS011;11176;51.448;6.650;2023-02-21T03:32:52;45.25;;;29.65;;
22024;SDS011;11176;51.448;6.650;2023-02-21T03:35:22;53.10;;;29.08;;
22024;SDS011;11176;51.448;6.650;2023-02-21T03:37:50;47.80;;;28.90;;
22024;SDS011;11176;51.448;6.650;2023-02-21T03:40:23;47.08;;;30.13;;
22024;SDS011;11176;51.448;6.650;2023-02-21T03:42:59;43.78;;;27.65;;
22024;SDS011;11176;51.448;6.650;2023-02-21T03:45:31;48.92;;;29.40;;
22024;SDS011;11176;51.448;6.650;2023-02-21T03:48:06;47.88;;;29.67;;
22024;SDS011;11176;51.448;6.650;2023-02-21T03:50:35;47.65;;;30.38;;
22024;SDS011;11176;51.448;6.650;2023-02-21T03:53:02;47.03;;;29.55;;
22024;SDS011;11176;51.448;6.650;2023-02-21T03:55:31;55.63;;;31.17;;
22024;SDS011;11176;51.448;6.650;2023-02-21T03:58:00;45.83;;;29.23;;
22024;SDS011;11176;51.448;6.650;2023-02-21T04:00:28;48.60;;;29.75;;
22024;SDS011;11176;51.448;6.650;2023-02-21T04:02:55;46.83;;;29.00;;
22024;SDS011;11176;51.448;6.650;2023-02-21T04:05:34;48.67;;;31.00;;
22024;SDS011;11176;51.448;6.650;2023-02-21T04:08:01;51.28;;;30.63;;
22024;SDS011;11176;51.448;6.650;2023-02-21T04:10:29;50.20;;;29.85;;
22024;SDS011;11176;51.448;6.650;2023-02-21T04:12:59;50.75;;;30.30;;
22024;SDS011;11176;51.448;6.650;2023-02-21T04:15:30;46.33;;;30.10;;
22024;SDS011;11176;51.448;6.650;2023-02-21T04:17:56;48.45;;;30.05;;
22024;SDS011;11176;51.448;6.650;2023-02-21T04:20:24;51.88;;;30.85;;
22024;SDS011;11176;51.448;6.650;2023-02-21T04:22:54;47.78;;;29.35;;
22024;SDS011;11176;51.448;6.650;2023-02-21T04:25:29;52.65;;;31.90;;
22024;SDS011;11176;51.448;6.650;2023-02-21T04:28:03;51.88;;;29.80;;
22024;SDS011;11176;51.448;6.650;2023-02-21T04:30:30;49.83;;;29.95;;
22024;SDS011;11176;51.448;6.650;2023-02-21T04:32:56;48.38;;;29.48;;
22024;SDS011;11176;51.448;6.650;2023-02-21T04:35:23;48.03;;;29.45;;
22024;SDS011;11176;51.448;6.650;2023-02-21T04:37:51;53.90;;;31.05;;
22024;SDS011;11176;51.448;6.650;2023-02-21T04:40:18;52.22;;;30.92;;
22024;SDS011;11176;51.448;6.650;2023-02-21T04:42:44;50.38;;;30.92;;
22024;SDS011;11176;51.448;6.650;2023-02-21T04:45:11;57.22;;;31.35;;
22024;SDS011;11176;51.448;6.650;2023-02-21T04:47:37;51.72;;;30.40;;
22024;SDS011;11176;51.448;6.650;2023-02-21T04:50:04;51.38;;;30.45;;
22024;SDS011;11176;51.448;6.650;2023-02-21T04:52:31;49.70;;;29.55;;
22024;SDS011;11176;51.448;6.650;2023-02-21T04:54:58;49.15;;;30.70;;
22024;SDS011;11176;51.448;6.650;2023-02-21T04:57:24;53.47;;;30.25;;
22024;SDS011;11176;51.448;6.650;2023-02-21T04:59:58;56.85;;;30.40;;
22024;SDS011;11176;51.448;6.650;2023-02-21T05:02:25;50.53;;;31.02;;
22024;SDS011;11176;51.448;6.650;2023-02-21T05:04:52;50.95;;;30.38;;
22024;SDS011;11176;51.448;6.650;2023-02-21T05:07:19;53.03;;;30.23;;
22024;SDS011;11176;51.448;6.650;2023-02-21T05:09:45;52.30;;;31.92;;
22024;SDS011;11176;51.448;6.650;2023-02-21T05:12:12;53.38;;;31.80;;
22024;SDS011;11176;51.448;6.650;2023-02-21T05:14:39;55.13;;;32.03;;
22024;SDS011;11176;51.448;6.650;2023-02-21T05:17:06;55.28;;;32.45;;
22024;SDS011;11176;51.448;6.650;2023-02-21T05:19:33;53.88;;;31.95;;
22024;SDS011;11176;51.448;6.650;2023-02-21T05:22:00;53.63;;;31.17;;
22024;SDS011;11176;51.448;6.650;2023-02-21T05:24:28;56.33;;;31.80;;
22024;SDS011;11176;51.448;6.650;2023-02-21T05:26:56;56.28;;;30.92;;
22024;SDS011;11176;51.448;6.650;2023-02-21T05:29:23;54.58;;;32.50;;
22024;SDS011;11176;51.448;6.650;2023-02-21T05:31:50;59.63;;;32.50;;
22024;SDS011;11176;51.448;6.650;2023-02-21T05:34:17;60.42;;;31.45;;
22024;SDS011;11176;51.448;6.650;2023-02-21T05:36:44;58.30;;;33.30;;
22024;SDS011;11176;51.448;6.650;2023-02-21T05:39:11;54.85;;;32.22;;
22024;SDS011;11176;51.448;6.650;2023-02-21T05:41:37;60.05;;;34.15;;
22024;SDS011;11176;51.448;6.650;2023-02-21T05:44:04;63.58;;;33.13;;
22024;SDS011;11176;51.448;6.650;2023-02-21T05:46:32;54.47;;;31.42;;
22024;SDS011;11176;51.448;6.650;2023-02-21T05:49:00;65.32;;;33.58;;
22024;SDS011;11176;51.448;6.650;2023-02-21T05:51:38;65.00;;;33.30;;
22024;SDS011;11176;51.448;6.650;2023-02-21T05:54:07;64.70;;;33.03;;
22024;SDS011;11176;51.448;6.650;2023-02-21T05:56:41;54.67;;;31.67;;
22024;SDS011;11176;51.448;6.650;2023-02-21T05:59:09;60.05;;;33.35;;
22024;SDS011;11176;51.448;6.650;2023-02-21T06:01:36;59.60;;;32.30;;
22024;SDS011;11176;51.448;6.650;2023-02-21T06:04:03;64.85;;;32.78;;
22024;SDS011;11176;51.448;6.650;2023-02-21T06:06:30;61.45;;;32.47;;
22024;SDS011;11176;51.448;6.650;2023-02-21T06:08:56;57.40;;;32.83;;
22024;SDS011;11176;51.448;6.650;2023-02-21T06:11:28;65.97;;;33.50;;
22024;SDS011;11176;51.448;6.650;2023-02-21T06:13:59;62.15;;;33.92;;
22024;SDS011;11176;51.448;6.650;2023-02-21T06:16:35;59.05;;;32.83;;
22024;SDS011;11176;51.448;6.650;2023-02-21T06:19:03;64.18;;;34.97;;
22024;SDS011;11176;51.448;6.650;2023-02-21T06:21:31;62.65;;;33.63;;
22024;SDS011;11176;51.448;6.650;2023-02-21T06:23:58;60.75;;;32.95;;
22024;SDS011;11176;51.448;6.650;2023-02-21T06:26:25;60.38;;;32.00;;
22024;SDS011;11176;51.448;6.650;2023-02-21T06:28:51;64.55;;;32.72;;
22024;SDS011;11176;51.448;6.650;2023-02-21T06:31:18;65.43;;;34.08;;
22024;SDS011;11176;51.448;6.650;2023-02-21T06:33:46;62.90;;;32.67;;
22024;SDS011;11176;51.448;6.650;2023-02-21T06:36:17;67.75;;;34.67;;
22024;SDS011;11176;51.448;6.650;2023-02-21T06:38:46;61.40;;;32.70;;
22024;SDS011;11176;51.448;6.650;2023-02-21T06:41:17;65.03;;;33.72;;
22024;SDS011;11176;51.448;6.650;2023-02-21T06:43:45;63.85;;;32.50;;
22024;SDS011;11176;51.448;6.650;2023-02-21T06:46:15;62.90;;;33.45;;
22024;SDS011;11176;51.448;6.650;2023-02-21T06:48:42;62.80;;;32.38;;
22024;SDS011;11176;51.448;6.650;2023-02-21T06:51:08;62.67;;;33.35;;
22024;SDS011;11176;51.448;6.650;2023-02-21T06:53:36;62.05;;;31.88;;
22024;SDS011;11176;51.448;6.650;2023-02-21T06:56:03;65.43;;;32.63;;
22024;SDS011;11176;51.448;6.650;2023-02-21T06:58:30;59.83;;;31.75;;
22024;SDS011;11176;51.448;6.650;2023-02-21T07:00:57;65.35;;;33.10;;
22024;SDS011;11176;51.448;6.650;2023-02-21T07:03:23;69.97;;;34.25;;
22024;SDS011;11176;51.448;6.650;2023-02-21T07:05:51;65.25;;;31.48;;
22024;SDS011;11176;51.448;6.650;2023-02-21T07:08:18;63.90;;;31.30;;
22024;SDS011;11176;51.448;6.650;2023-02-21T07:10:44;61.10;;;31.27;;
22024;SDS011;11176;51.448;6.650;2023-02-21T07:13:11;58.65;;;29.50;;
22024;SDS011;11176;51.448;6.650;2023-02-21T07:15:37;64.07;;;31.90;;
22024;SDS011;11176;51.448;6.650;2023-02-21T07:18:04;60.03;;;29.88;;
22024;SDS011;11176;51.448;6.650;2023-02-21T07:20:30;63.50;;;30.42;;
22024;SDS011;11176;51.448;6.650;2023-02-21T07:22:58;59.20;;;30.17;;
22024;SDS011;11176;51.448;6.650;2023-02-21T07:25:24;56.67;;;29.10;;
22024;SDS011;11176;51.448;6.650;2023-02-21T07:27:51;57.08;;;29.98;;
22024;SDS011;11176;51.448;6.650;2023-02-21T07:30:20;57.42;;;29.55;;
22024;SDS011;11176;51.448;6.650;2023-02-21T07:32:47;59.95;;;30.02;;
22024;SDS011;11176;51.448;6.650;2023-02-21T07:35:14;58.38;;;30.30;;
22024;SDS011;11176;51.448;6.650;2023-02-21T07:37:40;54.40;;;28.85;;
22024;SDS011;11176;51.448;6.650;2023-02-21T07:40:07;59.22;;;29.67;;
22024;SDS011;11176;51.448;6.650;2023-02-21T07:42:33;56.47;;;28.17;;
22024;SDS011;11176;51.448;6.650;2023-02-21T07:45:00;54.15;;;28.05;;
22024;SDS011;11176;51.448;6.650;2023-02-21T07:47:26;53.42;;;28.58;;
22024;SDS011;11176;51.448;6.650;2023-02-21T07:49:53;55.45;;;26.63;;
22024;SDS011;11176;51.448;6.650;2023-02-21T07:52:21;53.28;;;27.83;;
22024;SDS011;11176;51.448;6.650;2023-02-21T07:54:48;48.88;;;26.65;;
22024;SDS011;11176;51.448;6.650;2023-02-21T07:57:14;52.63;;;26.83;;
22024;SDS011;11176;51.448;6.650;2023-02-21T07:59:42;52.90;;;27.48;;
22024;SDS011;11176;51.448;6.650;2023-02-21T08:02:10;50.97;;;27.13;;
22024;SDS011;11176;51.448;6.650;2023-02-21T08:04:38;50.22;;;26.00;;
22024;SDS011;11176;51.448;6.650;2023-02-21T08:07:04;53.35;;;27.73;;
22024;SDS011;11176;51.448;6.650;2023-02-21T08:09:32;51.25;;;25.85;;
22024;SDS011;11176;51.448;6.650;2023-02-21T08:12:00;51.20;;;26.70;;
22024;SDS011;11176;51.448;6.650;2023-02-21T08:14:26;46.05;;;25.00;;
22024;SDS011;11176;51.448;6.650;2023-02-21T08:16:53;46.33;;;24.67;;
22024;SDS011;11176;51.448;6.650;2023-02-21T08:19:19;47.47;;;25.60;;
22024;SDS011;11176;51.448;6.650;2023-02-21T08:21:46;48.45;;;24.95;;
22024;SDS011;11176;51.448;6.650;2023-02-21T08:24:14;51.40;;;27.10;;
22024;SDS011;11176;51.448;6.650;2023-02-21T08:26:42;46.20;;;23.70;;
22024;SDS011;11176;51.448;6.650;2023-02-21T08:29:11;48.20;;;24.48;;
22024;SDS011;11176;51.448;6.650;2023-02-21T08:31:38;45.90;;;24.73;;
22024;SDS011;11176;51.448;6.650;2023-02-21T08:34:07;41.28;;;23.08;;
22024;SDS011;11176;51.448;6.650;2023-02-21T08:36:34;42.35;;;23.70;;
22024;SDS011;11176;51.448;6.650;2023-02-21T08:39:02;42.70;;;23.08;;
22024;SDS011;11176;51.448;6.650;2023-02-21T08:41:36;43.30;;;24.55;;
22024;SDS011;11176;51.448;6.650;2023-02-21T08:44:04;45.90;;;23.20;;
22024;SDS011;11176;51.448;6.650;2023-02-21T08:46:32;45.30;;;23.90;;
22024;SDS011;11176;51.448;6.650;2023-02-21T08:49:00;37.30;;;21.70;;
22024;SDS011;11176;51.448;6.650;2023-02-21T08:51:28;44.95;;;23.58;;
22024;SDS011;11176;51.448;6.650;2023-02-21T08:53:56;40.22;;;22.30;;
22024;SDS011;11176;51.448;6.650;2023-02-21T08:56:22;36.22;;;21.17;;
22024;SDS011;11176;51.448;6.650;2023-02-21T08:58:50;38.83;;;21.73;;
22024;SDS011;11176;51.448;6.650;2023-02-21T09:01:19;35.08;;;20.58;;
22024;SDS011;11176;51.448;6.650;2023-02-21T09:03:47;34.47;;;20.42;;
22024;SDS011;11176;51.448;6.650;2023-02-21T09:06:13;38.72;;;21.30;;
22024;SDS011;11176;51.448;6.650;2023-02-21T09:08:40;34.60;;;19.52;;
22024;SDS011;11176;51.448;6.650;2023-02-21T09:11:07;40.28;;;20.77;;
22024;SDS011;11176;51.448;6.650;2023-02-21T09:13:34;43.05;;;22.48;;
22024;SDS011;11176;51.448;6.650;2023-02-21T09:16:01;39.63;;;21.33;;
22024;SDS011;11176;51.448;6.650;2023-02-21T09:18:29;36.08;;;21.00;;
22024;SDS011;11176;51.448;6.650;2023-02-21T09:20:56;39.50;;;21.70;;
22024;SDS011;11176;51.448;6.650;2023-02-21T09:23:24;37.85;;;20.42;;
22024;SDS011;11176;51.448;6.650;2023-02-21T09:25:51;35.80;;;20.35;;
22024;SDS011;11176;51.448;6.650;2023-02-21T09:28:18;34.42;;;18.45;;
22024;SDS011;11176;51.448;6.650;2023-02-21T09:30:46;39.35;;;19.92;;
22024;SDS011;11176;51.448;6.650;2023-02-21T09:33:13;33.83;;;19.48;;
22024;SDS011;11176;51.448;6.650;2023-02-21T09:35:40;32.70;;;18.52;;
22024;SDS011;11176;51.448;6.650;2023-02-21T09:38:07;35.03;;;19.45;;
22024;SDS011;11176;51.448;6.650;2023-02-21T09:40:41;31.52;;;18.30;;
22024;SDS011;11176;51.448;6.650;2023-02-21T09:43:12;35.70;;;18.83;;
22024;SDS011;11176;51.448;6.650;2023-02-21T09:45:44;33.67;;;18.67;;
22024;SDS011;11176;51.448;6.650;2023-02-21T09:48:14;34.88;;;19.55;;
22024;SDS011;11176;51.448;6.650;2023-02-21T09:50:45;32.55;;;17.65;;
22024;SDS011;11176;51.448;6.650;2023-02-21T09:53:22;30.70;;;17.50;;
22024;SDS011;11176;51.448;6.650;2023-02-21T09:56:03;30.10;;;17.15;;
22024;SDS011;11176;51.448;6.650;2023-02-21T09:58:50;29.95;;;16.73;;
22024;SDS011;11176;51.448;6.650;2023-02-21T10:07:03;29.83;;;16.65;;
22024;SDS011;11176;51.448;6.650;2023-02-21T10:09:48;30.38;;;17.15;;
22024;SDS011;11176;51.448;6.650;2023-02-21T10:12:25;32.28;;;18.92;;
22024;SDS011;11176;51.448;6.650;2023-02-21T10:20:40;32.90;;;18.08;;
22024;SDS011;11176;51.448;6.650;2023-02-21T10:23:22;31.17;;;18.08;;
22024;SDS011;11176;51.448;6.650;2023-02-21T10:25:58;29.38;;;16.92;;
22024;SDS011;11176;51.448;6.650;2023-02-21T10:28:29;32.13;;;18.40;;
22024;SDS011;11176;51.448;6.650;2023-02-21T10:30:59;31.13;;;16.92;;
22024;SDS011;11176;51.448;6.650;2023-02-21T10:33:57;29.90;;;15.80;;
22024;SDS011;11176;51.448;6.650;2023-02-21T10:36:25;29.38;;;17.30;;
22024;SDS011;11176;51.448;6.650;2023-02-21T10:39:03;29.98;;;17.25;;
22024;SDS011;11176;51.448;6.650;2023-02-21T10:41:38;30.42;;;17.50;;
22024;SDS011;11176;51.448;6.650;2023-02-21T10:44:11;29.95;;;17.52;;
22024;SDS011;11176;51.448;6.650;2023-02-21T10:46:54;32.78;;;18.88;;
22024;SDS011;11176;51.448;6.650;2023-02-21T10:49:30;25.35;;;16.23;;
22024;SDS011;11176;51.448;6.650;2023-02-21T10:52:18;26.98;;;15.65;;
22024;SDS011;11176;51.448;6.650;2023-02-21T10:55:13;25.17;;;15.20;;
22024;SDS011;11176;51.448;6.650;2023-02-21T10:57:57;24.63;;;14.43;;
22024;SDS011;11176;51.448;6.650;2023-02-21T11:00:35;25.42;;;14.93;;
22024;SDS011;11176;51.448;6.650;2023-02-21T11:03:11;21.60;;;13.10;;
22024;SDS011;11176;51.448;6.650;2023-02-21T11:05:49;20.30;;;13.37;;
22024;SDS011;11176;51.448;6.650;2023-02-21T11:08:39;22.00;;;13.35;;
22024;SDS011;11176;51.448;6.650;2023-02-21T11:11:07;21.40;;;13.73;;
22024;SDS011;11176;51.448;6.650;2023-02-21T11:13:34;21.38;;;12.98;;
22024;SDS011;11176;51.448;6.650;2023-02-21T11:16:19;19.20;;;12.27;;
22024;SDS011;11176;51.448;6.650;2023-02-21T11:19:05;18.27;;;11.63;;
22024;SDS011;11176;51.448;6.650;2023-02-21T11:21:33;18.40;;;11.77;;
22024;SDS011;11176;51.448;6.650;2023-02-21T11:24:00;20.75;;;12.20;;
22024;SDS011;11176;51.448;6.650;2023-02-21T11:26:29;16.10;;;10.63;;
22024;SDS011;11176;51.448;6.650;2023-02-21T11:29:09;15.70;;;10.32;;
22024;SDS011;11176;51.448;6.650;2023-02-21T11:31:39;18.38;;;10.75;;
22024;SDS011;11176;51.448;6.650;2023-02-21T11:34:07;16.45;;;10.63;;
22024;SDS011;11176;51.448;6.650;2023-02-21T11:36:43;17.90;;;10.57;;
22024;SDS011;11176;51.448;6.650;2023-02-21T11:41:56;14.57;;;9.93;;
22024;SDS011;11176;51.448;6.650;2023-02-21T11:49:40;16.87;;;10.60;;
22024;SDS011;11176;51.448;6.650;2023-02-21T11:52:15;18.05;;;10.40;;
22024;SDS011;11176;51.448;6.650;2023-02-21T11:57:19;14.05;;;9.40;;
22024;SDS011;11176;51.448;6.650;2023-02-21T12:00:25;17.10;;;10.05;;
22024;SDS011;11176;51.448;6.650;2023-02-21T12:05:56;13.43;;;9.05;;
22024;SDS011;11176;51.448;6.650;2023-02-21T12:14:22;11.63;;;7.40;;
22024;SDS011;11176;51.448;6.650;2023-02-21T12:16:58;11.15;;;7.25;;
22024;SDS011;11176;51.448;6.650;2023-02-21T12:31:26;12.73;;;7.70;;
22024;SDS011;11176;51.448;6.650;2023-02-21T12:34:10;11.40;;;7.85;;
22024;SDS011;11176;51.448;6.650;2023-02-21T12:48:45;10.40;;;6.78;;
22024;SDS011;11176;51.448;6.650;2023-02-21T12:51:17;8.65;;;6.20;;
22024;SDS011;11176;51.448;6.650;2023-02-21T12:53:51;9.70;;;6.40;;
22024;SDS011;11176;51.448;6.650;2023-02-21T12:56:23;10.88;;;6.82;;
22024;SDS011;11176;51.448;6.650;2023-02-21T12:59:01;10.65;;;7.03;;
22024;SDS011;11176;51.448;6.650;2023-02-21T13:01:39;10.50;;;6.78;;
22024;SDS011;11176;51.448;6.650;2023-02-21T13:04:14;12.38;;;7.25;;
22024;SDS011;11176;51.448;6.650;2023-02-21T13:09:20;11.57;;;7.75;;
22024;SDS011;11176;51.448;6.650;2023-02-21T13:12:03;11.10;;;7.60;;
22024;SDS011;11176;51.448;6.650;2023-02-21T13:14:56;9.95;;;6.88;;
22024;SDS011;11176;51.448;6.650;2023-02-21T13:17:27;10.80;;;6.85;;
22024;SDS011;11176;51.448;6.650;2023-02-21T13:28:27;10.55;;;6.78;;
22024;SDS011;11176;51.448;6.650;2023-02-21T13:31:00;9.95;;;6.88;;
22024;SDS011;11176;51.448;6.650;2023-02-21T13:33:35;11.45;;;6.57;;
22024;SDS011;11176;51.448;6.650;2023-02-21T13:44:27;10.75;;;7.55;;
22024;SDS011;11176;51.448;6.650;2023-02-21T13:49:49;13.70;;;9.27;;
22024;SDS011;11176;51.448;6.650;2023-02-21T13:52:25;11.02;;;7.82;;
22024;SDS011;11176;51.448;6.650;2023-02-21T14:05:20;13.02;;;8.10;;
22024;SDS011;11176;51.448;6.650;2023-02-21T14:07:49;13.25;;;8.07;;
22024;SDS011;11176;51.448;6.650;2023-02-21T14:10:28;12.60;;;8.35;;
22024;SDS011;11176;51.448;6.650;2023-02-21T14:13:00;13.05;;;8.27;;
22024;SDS011;11176;51.448;6.650;2023-02-21T14:15:37;11.65;;;7.60;;
22024;SDS011;11176;51.448;6.650;2023-02-21T14:20:56;13.35;;;8.50;;
22024;SDS011;11176;51.448;6.650;2023-02-21T14:23:31;12.30;;;7.78;;
22024;SDS011;11176;51.448;6.650;2023-02-21T14:29:32;13.35;;;8.68;;
22024;SDS011;11176;51.448;6.650;2023-02-21T14:34:37;13.48;;;9.18;;
22024;SDS011;11176;51.448;6.650;2023-02-21T14:42:45;12.70;;;8.40;;
22024;SDS011;11176;51.448;6.650;2023-02-21T14:45:38;13.55;;;9.18;;
22024;SDS011;11176;51.448;6.650;2023-02-21T14:57:29;14.38;;;8.68;;
22024;SDS011;11176;51.448;6.650;2023-02-21T15:02:47;13.95;;;9.52;;
22024;SDS011;11176;51.448;6.650;2023-02-21T15:05:26;12.43;;;8.43;;
22024;SDS011;11176;51.448;6.650;2023-02-21T15:10:44;14.13;;;8.82;;
22024;SDS011;11176;51.448;6.650;2023-02-21T15:13:46;13.90;;;9.25;;
22024;SDS011;11176;51.448;6.650;2023-02-21T15:16:06;13.50;;;9.35;;
22024;SDS011;11176;51.448;6.650;2023-02-21T15:18:38;13.65;;;9.20;;
22024;SDS011;11176;51.448;6.650;2023-02-21T15:23:36;12.85;;;9.02;;
22024;SDS011;11176;51.448;6.650;2023-02-21T15:26:19;13.43;;;8.70;;
22024;SDS011;11176;51.448;6.650;2023-02-21T15:29:07;13.98;;;9.45;;
22024;SDS011;11176;51.448;6.650;2023-02-21T15:31:38;15.38;;;10.02;;
22024;SDS011;11176;51.448;6.650;2023-02-21T15:34:18;14.38;;;10.10;;
22024;SDS011;11176;51.448;6.650;2023-02-21T15:37:15;15.00;;;10.43;;
22024;SDS011;11176;51.448;6.650;2023-02-21T15:39:51;14.93;;;10.13;;
22024;SDS011;11176;51.448;6.650;2023-02-21T15:42:21;17.17;;;11.80;;
22024;SDS011;11176;51.448;6.650;2023-02-21T15:44:51;17.77;;;11.68;;
22024;SDS011;11176;51.448;6.650;2023-02-21T15:47:23;19.63;;;11.93;;
22024;SDS011;11176;51.448;6.650;2023-02-21T15:50:11;20.13;;;11.95;;
22024;SDS011;11176;51.448;6.650;2023-02-21T15:52:51;17.70;;;11.40;;
22024;SDS011;11176;51.448;6.650;2023-02-21T15:57:45;17.40;;;10.70;;
22024;SDS011;11176;51.448;6.650;2023-02-21T16:00:24;18.70;;;11.18;;
22024;SDS011;11176;51.448;6.650;2023-02-21T16:02:51;16.70;;;10.77;;
22024;SDS011;11176;51.448;6.650;2023-02-21T16:05:22;15.82;;;10.77;;
22024;SDS011;11176;51.448;6.650;2023-02-21T16:07:59;17.55;;;11.32;;
22024;SDS011;11176;51.448;6.650;2023-02-21T16:10:26;15.88;;;10.45;;
22024;SDS011;11176;51.448;6.650;2023-02-21T16:12:56;14.65;;;9.85;;
22024;SDS011;11176;51.448;6.650;2023-02-21T16:15:29;15.20;;;9.70;;
22024;SDS011;11176;51.448;6.650;2023-02-21T16:17:59;13.95;;;9.45;;
22024;SDS011;11176;51.448;6.650;2023-02-21T16:20:29;16.40;;;9.93;;
22024;SDS011;11176;51.448;6.650;2023-02-21T16:28:21;15.40;;;9.63;;
22024;SDS011;11176;51.448;6.650;2023-02-21T16:30:48;14.85;;;9.70;;
22024;SDS011;11176;51.448;6.650;2023-02-21T16:33:15;13.45;;;9.27;;
22024;SDS011;11176;51.448;6.650;2023-02-21T16:35:42;15.38;;;9.73;;
22024;SDS011;11176;51.448;6.650;2023-02-21T16:38:10;14.13;;;9.70;;
22024;SDS011;11176;51.448;6.650;2023-02-21T16:40:39;16.80;;;11.10;;
22024;SDS011;11176;51.448;6.650;2023-02-21T16:43:06;15.32;;;10.23;;
22024;SDS011;11176;51.448;6.650;2023-02-21T16:45:33;14.93;;;10.27;;
22024;SDS011;11176;51.448;6.650;2023-02-21T16:48:04;16.55;;;10.65;;
22024;SDS011;11176;51.448;6.650;2023-02-21T16:50:33;16.45;;;9.98;;
22024;SDS011;11176;51.448;6.650;2023-02-21T16:53:04;16.40;;;11.20;;
22024;SDS011;11176;51.448;6.650;2023-02-21T16:55:32;16.35;;;10.93;;
22024;SDS011;11176;51.448;6.650;2023-02-21T16:58:00;17.50;;;10.73;;
22024;SDS011;11176;51.448;6.650;2023-02-21T17:00:29;16.70;;;10.75;;
22024;SDS011;11176;51.448;6.650;2023-02-21T17:02:57;19.08;;;10.98;;
22024;SDS011;11176;51.448;6.650;2023-02-21T17:05:24;16.50;;;10.88;;
22024;SDS011;11176;51.448;6.650;2023-02-21T17:07:54;16.27;;;10.75;;
22024;SDS011;11176;51.448;6.650;2023-02-21T17:10:22;16.60;;;10.88;;
22024;SDS011;11176;51.448;6.650;2023-02-21T17:12:49;16.75;;;11.10;;
22024;SDS011;11176;51.448;6.650;2023-02-21T17:15:15;18.90;;;11.93;;
22024;SDS011;11176;51.448;6.650;2023-02-21T17:17:42;19.15;;;11.88;;
22024;SDS011;11176;51.448;6.650;2023-02-21T17:20:18;17.63;;;11.38;;
22024;SDS011;11176;51.448;6.650;2023-02-21T17:22:44;18.15;;;11.68;;
22024;SDS011;11176;51.448;6.650;2023-02-21T17:25:11;19.30;;;12.57;;
22024;SDS011;11176;51.448;6.650;2023-02-21T17:27:37;19.13;;;12.82;;
22024;SDS011;11176;51.448;6.650;2023-02-21T17:30:04;19.55;;;12.88;;
22024;SDS011;11176;51.448;6.650;2023-02-21T17:32:31;23.17;;;12.52;;
22024;SDS011;11176;51.448;6.650;2023-02-21T17:34:58;20.08;;;12.32;;
22024;SDS011;11176;51.448;6.650;2023-02-21T17:37:24;19.42;;;12.57;;
22024;SDS011;11176;51.448;6.650;2023-02-21T17:39:54;18.02;;;12.05;;
22024;SDS011;11176;51.448;6.650;2023-02-21T17:42:22;22.30;;;13.55;;